createdAt,value
2022-11-08T00:01:49.397Z,12.85
2022-11-08T00:04:20.114Z,14.35
2022-11-08T00:07:08.256Z,13.93
2022-11-08T00:09:54.880Z,14.52
2022-11-08T00:12:41.381Z,12.88
2022-11-08T00:15:11.989Z,11.88
2022-11-08T00:17:43.278Z,12.10
2022-11-08T00:20:12.880Z,13.30
2022-11-08T00:22:43.523Z,14.48
2022-11-08T00:25:12.849Z,14.07
2022-11-08T00:27:42.136Z,14.48
2022-11-08T00:30:12.220Z,12.40
2022-11-08T00:32:41.575Z,14.98
2022-11-08T00:35:11.170Z,15.75
2022-11-08T00:37:40.300Z,11.70
2022-11-08T00:40:13.071Z,11.18
2022-11-08T00:42:42.307Z,11.55
2022-11-08T00:45:11.559Z,10.13
2022-11-08T00:47:40.619Z,9.35
2022-11-08T00:50:10.846Z,11.30
2022-11-08T00:52:40.180Z,9.32
2022-11-08T00:55:11.170Z,9.75
2022-11-08T00:57:58.598Z,10.13
2022-11-08T01:00:29.532Z,10.13
2022-11-08T01:03:12.523Z,10.65
2022-11-08T01:05:42.041Z,9.93
2022-11-08T01:08:12.937Z,12.35
2022-11-08T01:10:44.670Z,15.35
2022-11-08T01:13:14.275Z,16.20
2022-11-08T01:15:45.874Z,19.30
2022-11-08T01:18:18.352Z,19.30
2022-11-08T01:20:50.913Z,19.63
2022-11-08T01:23:20.530Z,19.00
2022-11-08T01:25:51.042Z,17.40
2022-11-08T01:28:20.541Z,15.10
2022-11-08T01:30:50.124Z,14.65
2022-11-08T01:33:19.222Z,12.30
2022-11-08T01:35:48.235Z,12.35
2022-11-08T01:38:17.438Z,11.45
2022-11-08T01:40:48.983Z,11.30
2022-11-08T01:43:41.460Z,10.88
2022-11-08T01:46:42.645Z,10.85
2022-11-08T01:49:44.433Z,10.73
2022-11-08T01:52:29.015Z,11.35
2022-11-08T01:55:05.845Z,10.25
2022-11-08T01:57:44.992Z,10.60
2022-11-08T02:00:17.454Z,11.05
2022-11-08T02:02:52.886Z,12.35
2022-11-08T02:05:28.308Z,12.95
2022-11-08T02:08:04.087Z,11.18
2022-11-08T02:10:37.699Z,8.77
2022-11-08T02:13:14.711Z,10.18
2022-11-08T02:15:46.054Z,9.70
2022-11-08T02:18:17.859Z,10.27
2022-11-08T02:21:01.950Z,10.50
2022-11-08T02:23:46.999Z,10.98
2022-11-08T02:26:17.983Z,11.55
2022-11-08T02:28:49.485Z,10.18
2022-11-08T02:31:21.148Z,10.48
2022-11-08T02:33:50.918Z,9.30
2022-11-08T02:36:24.127Z,10.27
2022-11-08T02:38:58.365Z,10.90
2022-11-08T02:41:27.865Z,13.52
2022-11-08T02:43:59.902Z,14.88
2022-11-08T02:46:28.967Z,14.57
2022-11-08T02:48:58.164Z,15.35
2022-11-08T02:51:27.154Z,13.23
2022-11-08T02:53:57.724Z,13.43
2022-11-08T02:56:26.747Z,11.35
2022-11-08T02:58:56.227Z,9.43
2022-11-08T03:01:25.486Z,11.48
2022-11-08T03:03:54.639Z,10.40
2022-11-08T03:06:23.646Z,14.00
2022-11-08T03:08:52.730Z,13.32
2022-11-08T03:11:23.188Z,14.23
2022-11-08T03:13:52.242Z,13.02
2022-11-08T03:16:21.272Z,15.10
2022-11-08T03:18:50.369Z,14.88
2022-11-08T03:21:20.544Z,15.95
2022-11-08T03:23:49.630Z,14.93
2022-11-08T03:26:18.798Z,13.10
2022-11-08T03:28:49.218Z,12.65
2022-11-08T03:31:18.270Z,11.93
2022-11-08T03:33:47.264Z,12.40
2022-11-08T03:36:16.311Z,8.48
2022-11-08T03:38:45.344Z,8.43
2022-11-08T03:41:14.424Z,7.50
2022-11-08T03:43:43.426Z,8.10
2022-11-08T03:46:13.958Z,7.22
2022-11-08T03:48:43.026Z,7.50
2022-11-08T03:51:12.207Z,8.18
2022-11-08T03:53:41.266Z,12.50
2022-11-08T03:56:10.356Z,11.32
2022-11-08T03:58:40.168Z,9.38
2022-11-08T04:01:09.721Z,10.95
2022-11-08T04:03:40.242Z,9.35
2022-11-08T04:06:09.687Z,11.75
2022-11-08T04:08:38.718Z,18.42
2022-11-08T04:11:21.623Z,14.25
2022-11-08T04:14:08.214Z,13.45
2022-11-08T04:16:37.468Z,11.35
2022-11-08T04:19:25.717Z,9.02
2022-11-08T04:21:55.977Z,10.90
2022-11-08T04:24:25.215Z,10.02
2022-11-08T04:26:54.341Z,9.00
2022-11-08T04:29:23.396Z,9.07
2022-11-08T04:31:52.877Z,8.88
2022-11-08T04:34:23.409Z,8.95
2022-11-08T04:36:52.468Z,8.82
2022-11-08T04:39:21.508Z,8.73
2022-11-08T04:41:50.591Z,8.52
2022-11-08T04:44:19.604Z,8.27
2022-11-08T04:46:48.735Z,8.82
2022-11-08T04:49:17.981Z,7.30
2022-11-08T04:51:48.450Z,7.47
2022-11-08T04:54:17.462Z,7.47
2022-11-08T04:56:46.508Z,6.22
2022-11-08T04:59:15.559Z,5.68
2022-11-08T05:01:44.786Z,6.50
2022-11-08T05:04:13.894Z,7.85
2022-11-08T05:06:43.037Z,8.10
2022-11-08T05:09:14.706Z,8.30
2022-11-08T05:11:46.460Z,8.55
2022-11-08T05:14:15.734Z,9.35
2022-11-08T05:16:44.763Z,9.68
2022-11-08T05:19:35.604Z,11.70
2022-11-08T05:22:22.126Z,10.63
2022-11-08T05:24:52.566Z,11.20
2022-11-08T05:27:21.678Z,9.43
2022-11-08T05:29:50.838Z,11.38
2022-11-08T05:32:19.935Z,12.73
2022-11-08T05:34:49.082Z,10.88
2022-11-08T05:37:18.208Z,10.32
2022-11-08T05:39:47.279Z,10.23
2022-11-08T05:42:17.758Z,9.77
2022-11-08T05:44:46.799Z,10.10
2022-11-08T05:47:16.218Z,8.50
2022-11-08T05:49:45.306Z,7.55
2022-11-08T05:52:14.299Z,8.27
2022-11-08T05:54:43.371Z,8.10
2022-11-08T05:57:12.365Z,7.82
2022-11-08T05:59:43.507Z,7.78
2022-11-08T06:02:12.910Z,7.60
2022-11-08T06:04:42.038Z,7.75
2022-11-08T06:07:11.066Z,7.22
2022-11-08T06:09:41.346Z,7.72
2022-11-08T06:12:10.522Z,7.78
2022-11-08T06:14:39.542Z,7.43
2022-11-08T06:17:10.056Z,7.97
2022-11-08T06:19:39.190Z,7.45
2022-11-08T06:22:08.576Z,7.35
2022-11-08T06:24:37.833Z,8.73
2022-11-08T06:27:06.947Z,10.70
2022-11-08T06:29:36.001Z,10.65
2022-11-08T06:32:05.476Z,11.55
2022-11-08T06:34:35.899Z,10.55
2022-11-08T06:37:06.316Z,10.48
2022-11-08T06:39:35.317Z,9.93
2022-11-08T06:42:04.549Z,8.60
2022-11-08T06:44:33.803Z,9.70
2022-11-08T06:47:03.082Z,9.55
2022-11-08T06:49:32.234Z,8.20
2022-11-08T06:52:02.714Z,9.45
2022-11-08T06:54:31.846Z,9.90
2022-11-08T06:57:02.154Z,11.98
2022-11-08T06:59:31.214Z,13.70
2022-11-08T07:02:00.379Z,13.15
2022-11-08T07:04:29.562Z,14.77
2022-11-08T07:06:58.711Z,14.65
2022-11-08T07:09:29.990Z,16.00
2022-11-08T07:11:59.099Z,16.38
2022-11-08T07:14:28.193Z,15.02
2022-11-08T07:16:57.294Z,14.20
2022-11-08T07:19:26.329Z,13.00
2022-11-08T07:21:55.388Z,14.00
2022-11-08T07:24:24.373Z,12.85
2022-11-08T07:26:54.802Z,13.55
2022-11-08T07:29:23.853Z,14.13
2022-11-08T07:31:52.956Z,14.25
2022-11-08T07:34:23.170Z,14.85
2022-11-08T07:36:52.243Z,13.25
2022-11-08T07:39:21.331Z,13.43
2022-11-08T07:41:50.447Z,13.05
2022-11-08T07:44:20.941Z,12.88
2022-11-08T07:46:49.968Z,12.98
2022-11-08T07:49:19.049Z,11.85
2022-11-08T07:51:48.197Z,12.43
2022-11-08T07:54:17.512Z,12.40
2022-11-08T07:56:46.586Z,12.43
2022-11-08T07:59:16.116Z,12.25
2022-11-08T08:01:46.531Z,11.15
2022-11-08T08:04:15.621Z,10.90
2022-11-08T08:06:44.655Z,10.60
2022-11-08T08:09:13.724Z,10.32
2022-11-08T08:11:42.809Z,11.52
2022-11-08T08:14:11.977Z,20.63
2022-11-08T08:16:41.094Z,14.15
2022-11-08T08:19:11.643Z,11.38
2022-11-08T08:21:40.774Z,13.15
2022-11-08T08:24:10.339Z,13.73
2022-11-08T08:26:39.603Z,11.02
2022-11-08T08:29:08.630Z,12.73
2022-11-08T08:31:37.687Z,12.68
2022-11-08T08:34:06.801Z,11.45
2022-11-08T08:36:37.218Z,12.40
2022-11-08T08:39:06.300Z,12.07
2022-11-08T08:41:35.367Z,11.70
2022-11-08T08:44:04.592Z,10.25
2022-11-08T08:46:33.750Z,9.07
2022-11-08T08:49:02.794Z,9.13
2022-11-08T08:51:31.903Z,9.93
2022-11-08T08:54:02.391Z,11.57
2022-11-08T08:56:31.462Z,9.45
2022-11-08T09:01:50.231Z,9.25
2022-11-08T09:04:19.267Z,8.45
2022-11-08T09:06:48.466Z,8.50
2022-11-08T09:09:18.950Z,9.00
2022-11-08T09:11:48.304Z,8.70
2022-11-08T09:14:17.419Z,12.63
2022-11-08T09:16:46.470Z,11.77
2022-11-08T09:19:15.482Z,10.07
2022-11-08T09:21:44.701Z,8.18
2022-11-08T09:24:13.770Z,8.30
2022-11-08T09:26:44.290Z,8.45
2022-11-08T09:29:13.342Z,7.85
2022-11-08T09:31:42.393Z,8.20
2022-11-08T09:34:11.496Z,7.80
2022-11-08T09:36:40.584Z,7.47
2022-11-08T09:39:09.691Z,7.22
2022-11-08T09:42:22.455Z,7.03
2022-11-08T09:45:19.876Z,10.88
2022-11-08T09:47:53.165Z,8.70
2022-11-08T09:50:27.687Z,5.65
2022-11-08T09:53:08.805Z,6.03
2022-11-08T09:55:41.942Z,5.35
2022-11-08T09:58:29.577Z,5.72
2022-11-08T10:00:59.787Z,5.28
2022-11-08T10:03:30.041Z,5.72
2022-11-08T10:06:32.725Z,6.50
2022-11-08T10:09:14.315Z,5.57
2022-11-08T10:12:02.387Z,5.90
2022-11-08T10:17:47.368Z,6.05
2022-11-08T10:20:29.925Z,5.40
2022-11-08T10:23:11.337Z,5.40
2022-11-08T10:25:46.255Z,5.30
2022-11-08T10:28:19.215Z,5.70
2022-11-08T10:30:53.151Z,5.22
2022-11-08T10:33:39.991Z,5.15
2022-11-08T10:36:14.809Z,5.82
2022-11-08T10:38:51.397Z,5.70
2022-11-08T10:41:26.564Z,5.17
2022-11-08T10:44:05.022Z,5.20
2022-11-08T10:46:44.877Z,5.25
2022-11-08T10:49:21.827Z,4.97
2022-11-08T10:51:54.083Z,5.43
2022-11-08T10:54:48.779Z,5.20
2022-11-08T10:57:23.770Z,4.97
2022-11-08T10:59:54.071Z,5.35
2022-11-08T11:02:29.832Z,5.07
2022-11-08T11:05:27.594Z,5.00
2022-11-08T11:08:04.982Z,4.73
2022-11-08T11:13:07.595Z,4.88
2022-11-08T11:15:39.642Z,4.40
2022-11-08T11:18:31.628Z,4.50
2022-11-08T11:21:10.000Z,5.10
2022-11-08T11:23:44.424Z,4.68
2022-11-08T11:26:28.882Z,4.88
2022-11-08T11:29:23.413Z,5.00
2022-11-08T11:31:55.015Z,4.78
2022-11-08T11:34:51.770Z,4.28
2022-11-08T11:37:34.487Z,4.43
2022-11-08T11:40:15.767Z,4.53
2022-11-08T11:42:55.418Z,4.45
2022-11-08T11:45:32.118Z,4.05
2022-11-08T11:48:05.147Z,4.50
2022-11-08T11:50:38.117Z,4.50
2022-11-08T11:53:15.404Z,4.07
2022-11-08T11:56:06.593Z,4.03
2022-11-08T11:58:57.482Z,5.03
2022-11-08T12:01:52.431Z,4.75
2022-11-08T12:04:49.730Z,4.05
2022-11-08T12:07:25.492Z,3.80
2022-11-08T12:10:14.835Z,3.50
2022-11-08T12:12:59.895Z,4.10
2022-11-08T12:15:38.527Z,3.70
2022-11-08T12:18:43.356Z,4.00
2022-11-08T12:21:15.898Z,4.35
2022-11-08T12:24:19.087Z,4.20
2022-11-08T12:26:56.071Z,4.10
2022-11-08T12:29:28.304Z,3.97
2022-11-08T12:32:25.364Z,3.72
2022-11-08T12:35:18.053Z,3.70
2022-11-08T12:38:03.918Z,3.30
2022-11-08T12:40:46.814Z,4.28
2022-11-08T12:43:37.055Z,3.88
2022-11-08T12:46:13.619Z,3.80
2022-11-08T12:49:23.097Z,3.78
2022-11-08T12:52:10.140Z,3.55
2022-11-08T12:54:42.740Z,4.22
2022-11-08T12:57:17.736Z,4.75
2022-11-08T12:59:50.206Z,4.57
2022-11-08T13:02:24.438Z,5.60
2022-11-08T13:05:02.857Z,4.53
2022-11-08T13:07:44.713Z,5.00
2022-11-08T13:10:26.088Z,5.32
2022-11-08T13:13:22.236Z,5.53
2022-11-08T13:16:15.502Z,4.93
2022-11-08T13:18:54.135Z,4.95
2022-11-08T13:21:42.087Z,4.85
2022-11-08T13:27:35.548Z,5.20
2022-11-08T13:30:36.383Z,5.35
2022-11-08T13:33:17.388Z,5.07
2022-11-08T13:35:57.448Z,5.88
2022-11-08T13:38:40.393Z,5.55
2022-11-08T13:41:19.831Z,6.05
2022-11-08T13:43:50.607Z,5.57
2022-11-08T13:46:52.187Z,4.97
2022-11-08T13:49:24.323Z,4.35
2022-11-08T13:52:46.152Z,4.78
2022-11-08T13:55:46.854Z,4.18
2022-11-08T13:58:32.198Z,4.65
2022-11-08T14:01:03.891Z,4.55
2022-11-08T14:06:41.862Z,4.83
2022-11-08T14:09:29.186Z,4.40
2022-11-08T14:12:07.924Z,3.85
2022-11-08T14:14:48.517Z,4.28
2022-11-08T14:17:45.636Z,4.30
2022-11-08T14:20:28.214Z,4.05
2022-11-08T14:23:00.199Z,4.05
2022-11-08T14:25:32.810Z,4.22
2022-11-08T14:28:02.396Z,4.00
2022-11-08T14:30:32.139Z,4.25
2022-11-08T14:33:17.414Z,3.63
2022-11-08T14:35:57.010Z,3.90
2022-11-08T14:38:28.581Z,4.38
2022-11-08T14:41:01.883Z,4.03
2022-11-08T14:43:32.364Z,4.63
2022-11-08T14:46:12.602Z,3.90
2022-11-08T14:48:51.084Z,5.00
2022-11-08T14:51:20.526Z,4.38
2022-11-08T14:53:54.008Z,4.50
2022-11-08T14:56:25.248Z,4.03
2022-11-08T14:58:56.251Z,4.30
2022-11-08T15:01:27.926Z,4.60
2022-11-08T15:03:59.900Z,4.38
2022-11-08T15:06:37.780Z,4.05
2022-11-08T15:09:09.579Z,3.50
2022-11-08T15:11:43.446Z,3.95
2022-11-08T15:14:19.908Z,3.90
2022-11-08T15:16:55.312Z,3.72
2022-11-08T15:19:35.163Z,4.07
2022-11-08T15:22:24.554Z,4.22
2022-11-08T15:25:04.452Z,4.35
2022-11-08T15:27:33.537Z,4.28
2022-11-08T15:30:08.590Z,5.40
2022-11-08T15:32:40.105Z,5.05
2022-11-08T15:35:24.865Z,5.15
2022-11-08T15:37:59.954Z,5.25
2022-11-08T15:40:33.641Z,5.15
2022-11-08T15:43:03.649Z,4.55
2022-11-08T15:45:35.797Z,4.80
2022-11-08T15:48:22.819Z,4.45
2022-11-08T15:50:51.930Z,4.85
2022-11-08T15:53:21.318Z,4.07
2022-11-08T15:55:54.971Z,5.40
2022-11-08T15:58:29.671Z,4.97
2022-11-08T16:01:01.637Z,5.93
2022-11-08T16:03:31.526Z,4.60
2022-11-08T16:06:00.688Z,5.75
2022-11-08T16:08:29.782Z,8.40
2022-11-08T16:11:01.861Z,11.77
2022-11-08T16:13:35.485Z,10.05
2022-11-08T16:16:11.162Z,7.25
2022-11-08T16:18:40.338Z,8.50
2022-11-08T16:21:11.605Z,8.02
2022-11-08T16:23:41.463Z,7.50
2022-11-08T16:26:17.527Z,7.38
2022-11-08T16:28:46.630Z,7.30
2022-11-08T16:31:17.884Z,6.85
2022-11-08T16:33:48.150Z,7.00
2022-11-08T16:36:21.824Z,5.85
2022-11-08T16:38:53.722Z,6.80
2022-11-08T16:41:26.041Z,8.50
2022-11-08T16:43:56.473Z,7.40
2022-11-08T16:46:25.902Z,5.45
2022-11-08T16:48:58.137Z,6.70
2022-11-08T16:51:27.727Z,7.10
2022-11-08T16:53:57.096Z,7.22
2022-11-08T16:56:27.618Z,8.48
2022-11-08T16:58:56.635Z,6.38
2022-11-08T17:01:32.483Z,6.50
2022-11-08T17:04:01.930Z,6.97
2022-11-08T17:06:31.368Z,6.28
2022-11-08T17:09:00.600Z,6.45
2022-11-08T17:11:31.091Z,7.00
2022-11-08T17:14:00.253Z,5.72
2022-11-08T17:16:29.451Z,6.30
2022-11-08T17:18:58.842Z,6.93
2022-11-08T17:21:45.421Z,6.43
2022-11-08T17:24:21.296Z,5.53
2022-11-08T17:26:53.643Z,11.07
2022-11-08T17:29:22.739Z,7.65
2022-11-08T17:31:53.438Z,9.20
2022-11-08T17:34:22.520Z,6.10
2022-11-08T17:36:53.170Z,5.78
2022-11-08T17:39:22.274Z,6.57
2022-11-08T17:41:52.727Z,6.90
2022-11-08T17:44:22.053Z,7.57
2022-11-08T17:47:18.306Z,10.02
2022-11-08T17:49:47.478Z,8.63
2022-11-08T17:52:17.298Z,7.53
2022-11-08T17:54:51.698Z,7.70
2022-11-08T17:57:23.373Z,7.93
2022-11-08T17:59:55.313Z,6.90
2022-11-08T18:02:28.113Z,6.57
2022-11-08T18:04:57.320Z,5.78
2022-11-08T18:07:26.522Z,6.03
2022-11-08T18:09:55.579Z,6.60
2022-11-08T18:12:26.143Z,7.43
2022-11-08T18:14:55.212Z,7.75
2022-11-08T18:17:24.339Z,7.57
2022-11-08T18:19:53.453Z,12.77
2022-11-08T18:22:22.621Z,11.18
2022-11-08T18:24:51.826Z,9.57
2022-11-08T18:27:20.995Z,11.82
2022-11-08T18:29:51.847Z,11.13
2022-11-08T18:32:21.138Z,10.90
2022-11-08T18:34:50.469Z,10.32
2022-11-08T18:37:19.910Z,11.32
2022-11-08T18:39:49.007Z,11.80
2022-11-08T18:42:20.050Z,12.82
2022-11-08T18:44:49.141Z,10.40
2022-11-08T18:47:19.695Z,10.68
2022-11-08T18:49:49.238Z,10.10
2022-11-08T18:52:18.611Z,9.85
2022-11-08T18:54:48.902Z,7.80
2022-11-08T18:57:20.811Z,6.22
2022-11-08T18:59:50.049Z,6.35
2022-11-08T19:02:21.268Z,6.97
2022-11-08T19:04:50.786Z,7.70
2022-11-08T19:07:20.326Z,7.53
2022-11-08T19:09:50.884Z,8.88
2022-11-08T19:12:20.708Z,9.00
2022-11-08T19:14:50.033Z,8.38
2022-11-08T19:17:20.748Z,9.40
2022-11-08T19:19:50.414Z,9.75
2022-11-08T19:22:19.725Z,9.48
2022-11-08T19:24:48.969Z,9.85
2022-11-08T19:27:18.061Z,12.50
2022-11-08T19:29:47.459Z,12.60
2022-11-08T19:32:16.607Z,11.43
2022-11-08T19:34:47.184Z,11.70
2022-11-08T19:37:16.441Z,11.57
2022-11-08T19:39:45.868Z,12.93
2022-11-08T19:42:15.259Z,13.35
2022-11-08T19:44:44.661Z,12.63
2022-11-08T19:47:13.894Z,11.13
2022-11-08T19:49:43.033Z,10.80
2022-11-08T19:52:13.755Z,11.93
2022-11-08T19:54:44.038Z,10.80
2022-11-08T19:57:13.771Z,9.50
2022-11-08T19:59:43.373Z,9.23
2022-11-08T20:02:12.679Z,8.77
2022-11-08T20:04:42.074Z,8.40
2022-11-08T20:07:11.260Z,10.07
2022-11-08T20:09:41.845Z,10.32
2022-11-08T20:12:11.109Z,11.05
2022-11-08T20:14:40.296Z,11.35
2022-11-08T20:17:10.519Z,11.25
2022-11-08T20:20:01.030Z,11.88
2022-11-08T20:22:37.990Z,12.95
2022-11-08T20:25:14.234Z,12.82
2022-11-08T20:27:44.931Z,12.65
2022-11-08T20:30:16.204Z,11.93
2022-11-08T20:32:45.286Z,11.50
2022-11-08T20:35:19.127Z,9.43
2022-11-08T20:37:52.366Z,9.07
2022-11-08T20:40:22.848Z,9.43
2022-11-08T20:42:51.910Z,8.40
2022-11-08T20:45:21.025Z,8.30
2022-11-08T20:47:50.235Z,8.23
2022-11-08T20:50:19.384Z,8.45
2022-11-08T20:52:48.395Z,10.32
2022-11-08T20:55:17.694Z,10.05
2022-11-08T20:57:48.117Z,9.80
2022-11-08T21:00:32.815Z,11.25
2022-11-08T21:03:07.767Z,12.00
2022-11-08T21:05:37.341Z,12.38
2022-11-08T21:08:57.479Z,11.60
2022-11-08T21:10:56.418Z,12.05
2022-11-08T21:13:29.802Z,11.63
2022-11-08T21:16:19.780Z,13.05
2022-11-08T21:18:49.918Z,11.40
2022-11-08T21:21:22.400Z,12.30
2022-11-08T21:23:52.289Z,14.30
2022-11-08T21:26:21.796Z,14.88
2022-11-08T21:28:52.450Z,14.30
2022-11-08T21:31:21.513Z,15.27
2022-11-08T21:33:50.669Z,13.93
2022-11-08T21:36:23.301Z,12.43
2022-11-08T21:38:52.402Z,12.70
2022-11-08T21:41:24.458Z,13.43
2022-11-08T21:43:54.992Z,13.23
2022-11-08T21:46:28.755Z,14.35
2022-11-08T21:49:00.152Z,15.02
2022-11-08T21:51:30.750Z,14.55
2022-11-08T21:54:00.613Z,13.95
2022-11-08T21:56:32.281Z,12.82
2022-11-08T21:59:04.250Z,12.38
2022-11-08T22:01:34.509Z,11.65
2022-11-08T22:04:03.565Z,11.70
2022-11-08T22:06:32.640Z,12.23
2022-11-08T22:09:01.706Z,11.75
2022-11-08T22:11:30.727Z,13.65
2022-11-08T22:13:59.950Z,13.07
2022-11-08T22:16:30.428Z,11.02
2022-11-08T22:19:06.729Z,13.15
2022-11-08T22:21:44.265Z,15.27
2022-11-08T22:24:17.438Z,14.50
2022-11-08T22:26:47.241Z,14.70
2022-11-08T22:29:17.833Z,15.30
2022-11-08T22:31:48.440Z,14.35
2022-11-08T22:34:17.933Z,17.00
2022-11-08T22:36:47.096Z,14.05
2022-11-08T22:39:18.881Z,14.73
2022-11-08T22:41:50.906Z,15.35
2022-11-08T22:44:21.394Z,14.48
2022-11-08T22:46:51.809Z,15.85
2022-11-08T22:49:20.928Z,20.15
2022-11-08T22:51:50.012Z,18.30
2022-11-08T22:54:19.066Z,20.13
2022-11-08T22:56:48.336Z,21.63
2022-11-08T22:59:17.350Z,20.38
2022-11-08T23:01:46.432Z,18.27
2022-11-08T23:04:17.326Z,18.95
2022-11-08T23:06:48.472Z,19.35
2022-11-08T23:09:17.631Z,17.20
2022-11-08T23:12:03.951Z,17.20
2022-11-08T23:14:50.492Z,17.25
2022-11-08T23:17:19.742Z,15.57
2022-11-08T23:20:07.787Z,16.70
2022-11-08T23:22:54.393Z,16.27
2022-11-08T23:25:23.529Z,14.93
2022-11-08T23:28:10.260Z,14.27
2022-11-08T23:30:58.884Z,13.43
2022-11-08T23:33:27.906Z,14.57
2022-11-08T23:36:15.622Z,15.77
2022-11-08T23:38:45.044Z,16.42
2022-11-08T23:41:31.319Z,19.85
2022-11-08T23:44:17.763Z,19.00
2022-11-08T23:46:46.735Z,21.55
2022-11-08T23:49:15.826Z,21.85
2022-11-08T23:51:46.282Z,24.17
2022-11-08T23:54:15.635Z,24.85
2022-11-08T23:56:45.612Z,22.95
2022-11-08T23:59:16.676Z,23.02
